createdAt,value
2018-12-24T00:01:03.619Z,8.31
2018-12-24T00:03:32.533Z,8.36
2018-12-24T00:06:01.443Z,8.24
2018-12-24T00:08:30.380Z,8.48
2018-12-24T00:10:59.275Z,8.65
2018-12-24T00:13:28.188Z,8.41
2018-12-24T00:15:57.062Z,8.40
2018-12-24T00:18:25.956Z,8.35
2018-12-24T00:20:54.819Z,8.32
2018-12-24T00:23:23.712Z,8.35
2018-12-24T00:25:52.621Z,8.31
2018-12-24T00:28:21.517Z,8.27
2018-12-24T00:30:50.398Z,8.15
2018-12-24T00:33:19.251Z,8.25
2018-12-24T00:35:48.121Z,8.15
2018-12-24T00:38:16.997Z,8.06
2018-12-24T00:40:45.887Z,8.03
2018-12-24T00:43:14.765Z,8.09
2018-12-24T00:45:43.718Z,8.15
2018-12-24T00:48:12.595Z,8.44
2018-12-24T00:50:41.469Z,8.25
2018-12-24T00:53:10.342Z,8.23
2018-12-24T00:55:39.205Z,8.22
2018-12-24T00:58:08.151Z,8.51
2018-12-24T01:00:37.048Z,8.62
2018-12-24T01:03:05.994Z,8.35
2018-12-24T01:05:34.911Z,8.24
2018-12-24T01:08:03.775Z,8.29
2018-12-24T01:10:32.665Z,8.25
2018-12-24T01:13:01.557Z,8.28
2018-12-24T01:15:30.442Z,8.43
2018-12-24T01:17:59.320Z,8.23
2018-12-24T01:20:28.188Z,8.11
2018-12-24T01:22:57.075Z,8.09
2018-12-24T01:25:25.977Z,8.06
2018-12-24T01:27:54.882Z,8.16
2018-12-24T01:30:23.777Z,8.10
2018-12-24T01:32:52.647Z,8.00
2018-12-24T01:35:21.549Z,7.99
2018-12-24T01:37:50.401Z,7.97
2018-12-24T01:40:19.309Z,7.95
2018-12-24T01:42:48.207Z,7.95
2018-12-24T01:45:17.125Z,7.89
2018-12-24T01:47:45.975Z,7.87
2018-12-24T01:50:14.874Z,7.77
2018-12-24T01:52:43.770Z,7.75
2018-12-24T01:55:12.707Z,7.82
2018-12-24T01:57:41.582Z,7.81
2018-12-24T02:00:10.486Z,7.83
2018-12-24T02:02:39.406Z,7.88
2018-12-24T02:05:08.371Z,7.87
2018-12-24T02:07:37.258Z,7.88
2018-12-24T02:10:06.136Z,7.83
2018-12-24T02:12:42.161Z,7.83
2018-12-24T02:15:03.902Z,7.79
2018-12-24T02:17:32.788Z,7.81
2018-12-24T02:20:01.651Z,8.13
2018-12-24T02:22:30.539Z,7.97
2018-12-24T02:24:59.400Z,7.90
2018-12-24T02:27:28.320Z,7.81
2018-12-24T02:29:57.198Z,8.13
2018-12-24T02:32:26.095Z,7.89
2018-12-24T02:34:54.964Z,7.81
2018-12-24T02:37:23.870Z,7.71
2018-12-24T02:39:52.750Z,7.62
2018-12-24T02:42:21.602Z,7.58
2018-12-24T02:44:50.518Z,7.48
2018-12-24T02:47:19.396Z,7.39
2018-12-24T02:49:48.298Z,7.28
2018-12-24T02:52:17.180Z,7.23
2018-12-24T02:54:46.079Z,7.10
2018-12-24T02:57:14.968Z,6.97
2018-12-24T02:59:43.878Z,6.89
2018-12-24T03:02:12.746Z,6.89
2018-12-24T03:04:41.637Z,6.91
2018-12-24T03:07:10.531Z,6.90
2018-12-24T03:09:39.407Z,6.96
2018-12-24T03:12:08.297Z,7.02
2018-12-24T03:14:37.200Z,7.11
2018-12-24T03:17:06.112Z,7.22
2018-12-24T03:19:34.999Z,7.29
2018-12-24T03:22:03.904Z,7.31
2018-12-24T03:24:32.763Z,7.67
2018-12-24T03:27:01.665Z,7.48
2018-12-24T03:29:30.547Z,7.49
2018-12-24T03:31:59.444Z,7.48
2018-12-24T03:34:28.391Z,7.49
2018-12-24T03:36:57.270Z,7.86
2018-12-24T03:39:26.135Z,7.71
2018-12-24T03:41:55.111Z,7.62
2018-12-24T03:44:24.029Z,7.61
2018-12-24T03:46:52.823Z,7.63
2018-12-24T03:49:21.750Z,7.64
2018-12-24T03:51:50.613Z,7.70
2018-12-24T03:54:19.477Z,7.61
2018-12-24T03:56:48.391Z,7.61
2018-12-24T03:59:17.272Z,7.57
2018-12-24T04:01:46.182Z,7.56
2018-12-24T04:04:15.084Z,7.53
2018-12-24T04:06:44.012Z,7.55
2018-12-24T04:09:12.923Z,7.57
2018-12-24T04:11:41.849Z,7.56
2018-12-24T04:14:10.710Z,7.58
2018-12-24T04:16:39.626Z,7.58
2018-12-24T04:19:08.504Z,7.50
2018-12-24T04:21:37.401Z,7.51
2018-12-24T04:24:06.425Z,7.50
2018-12-24T04:26:35.269Z,7.48
2018-12-24T04:29:04.221Z,7.46
2018-12-24T04:31:33.148Z,7.44
2018-12-24T04:34:02.046Z,7.49
2018-12-24T04:36:31.077Z,7.42
2018-12-24T04:38:59.975Z,7.40
2018-12-24T04:41:28.913Z,7.35
2018-12-24T04:43:59.175Z,7.36
2018-12-24T04:46:26.701Z,7.37
2018-12-24T04:48:55.584Z,7.38
2018-12-24T04:51:24.447Z,7.33
2018-12-24T04:53:53.353Z,7.35
2018-12-24T04:56:22.210Z,7.35
2018-12-24T04:58:51.099Z,7.27
2018-12-24T05:01:19.972Z,7.28
2018-12-24T05:03:48.871Z,7.31
2018-12-24T05:06:17.738Z,7.40
2018-12-24T05:08:46.642Z,7.38
2018-12-24T05:11:15.542Z,7.38
2018-12-24T05:13:44.435Z,7.34
2018-12-24T05:16:13.324Z,7.34
2018-12-24T05:18:42.216Z,7.32
2018-12-24T05:21:11.106Z,7.31
2018-12-24T05:23:39.996Z,7.31
2018-12-24T05:26:08.890Z,7.39
2018-12-24T05:28:37.794Z,7.37
2018-12-24T05:31:06.716Z,7.34
2018-12-24T05:33:35.612Z,7.35
2018-12-24T05:36:04.553Z,7.35
2018-12-24T05:38:33.434Z,7.37
2018-12-24T05:41:02.341Z,7.34
2018-12-24T05:43:31.222Z,7.43
2018-12-24T05:46:00.136Z,7.38
2018-12-24T05:48:29.061Z,7.43
2018-12-24T05:50:57.976Z,7.45
2018-12-24T05:53:26.873Z,7.45
2018-12-24T05:55:55.763Z,7.41
2018-12-24T05:58:24.656Z,7.43
2018-12-24T06:00:53.518Z,7.75
2018-12-24T06:03:22.421Z,7.55
2018-12-24T06:05:51.299Z,7.51
2018-12-24T06:08:20.211Z,7.47
2018-12-24T06:10:49.099Z,7.34
2018-12-24T06:13:18.000Z,7.38
2018-12-24T06:15:46.889Z,7.41
2018-12-24T06:18:15.890Z,7.41
2018-12-24T06:20:44.780Z,7.43
2018-12-24T06:23:13.668Z,7.40
2018-12-24T06:25:42.555Z,7.41
2018-12-24T06:28:11.450Z,7.41
2018-12-24T06:30:40.323Z,7.45
2018-12-24T06:33:09.293Z,7.49
2018-12-24T06:35:38.190Z,7.47
2018-12-24T06:38:07.128Z,7.47
2018-12-24T06:40:36.019Z,7.49
2018-12-24T06:43:04.986Z,7.52
2018-12-24T06:45:33.850Z,7.52
2018-12-24T06:48:02.767Z,7.51
2018-12-24T06:50:31.673Z,7.47
2018-12-24T06:53:00.589Z,7.48
2018-12-24T06:55:29.444Z,7.43
2018-12-24T06:57:58.338Z,7.38
2018-12-24T07:00:27.229Z,7.34
2018-12-24T07:02:56.157Z,7.34
2018-12-24T07:05:25.026Z,7.31
2018-12-24T07:07:53.992Z,7.32
2018-12-24T07:10:22.898Z,7.33
2018-12-24T07:12:51.784Z,7.39
2018-12-24T07:15:20.689Z,7.40
2018-12-24T07:17:49.587Z,7.44
2018-12-24T07:20:18.467Z,7.45
2018-12-24T07:22:47.363Z,7.46
2018-12-24T07:25:16.228Z,7.37
2018-12-24T07:27:45.159Z,7.38
2018-12-24T07:30:14.007Z,7.35
2018-12-24T07:32:42.897Z,7.39
2018-12-24T07:35:11.808Z,7.38
2018-12-24T07:37:40.679Z,7.66
2018-12-24T07:40:09.621Z,7.41
2018-12-24T07:42:38.495Z,7.64
2018-12-24T07:45:07.492Z,7.36
2018-12-24T07:47:36.376Z,7.17
2018-12-24T07:50:06.018Z,7.03
2018-12-24T07:52:34.886Z,6.96
2018-12-24T07:55:03.788Z,6.83
2018-12-24T07:57:32.669Z,6.73
2018-12-24T08:00:01.535Z,6.67
2018-12-24T08:02:30.568Z,6.70
2018-12-24T08:04:59.474Z,6.64
2018-12-24T08:07:28.353Z,6.55
2018-12-24T08:09:57.264Z,6.46
2018-12-24T08:12:26.156Z,6.40
2018-12-24T08:14:55.054Z,6.32
2018-12-24T08:17:24.268Z,6.27
2018-12-24T08:19:53.172Z,6.21
2018-12-24T08:22:22.025Z,6.53
2018-12-24T08:24:50.909Z,6.28
2018-12-24T08:27:19.783Z,6.38
2018-12-24T08:29:48.735Z,6.59
2018-12-24T08:32:17.599Z,6.75
2018-12-24T08:34:46.534Z,6.96
2018-12-24T08:37:15.422Z,7.38
2018-12-24T08:39:44.312Z,7.59
2018-12-24T08:42:13.192Z,7.38
2018-12-24T08:44:42.228Z,7.95
2018-12-24T08:47:10.961Z,8.64
2018-12-24T08:49:39.892Z,9.67
2018-12-24T08:52:08.897Z,10.83
2018-12-24T08:54:37.779Z,11.73
2018-12-24T08:57:06.804Z,11.94
2018-12-24T08:59:35.650Z,11.95
2018-12-24T09:02:04.666Z,11.52
2018-12-24T09:04:33.466Z,10.90
2018-12-24T09:07:02.358Z,10.22
2018-12-24T09:09:31.244Z,9.83
2018-12-24T09:12:00.106Z,9.87
2018-12-24T09:14:29.016Z,10.17
2018-12-24T09:16:57.949Z,10.58
2018-12-24T09:19:26.838Z,10.64
2018-12-24T09:21:55.738Z,10.15
2018-12-24T09:24:24.617Z,10.06
2018-12-24T09:26:53.533Z,10.49
2018-12-24T09:29:22.465Z,11.04
2018-12-24T09:31:51.347Z,11.77
2018-12-24T09:34:20.238Z,11.90
2018-12-24T09:36:49.143Z,11.17
2018-12-24T09:39:18.068Z,10.41
2018-12-24T09:41:46.867Z,10.26
2018-12-24T09:44:15.777Z,10.15
2018-12-24T09:46:44.677Z,10.58
2018-12-24T09:49:13.567Z,11.27
2018-12-24T09:51:42.564Z,11.61
2018-12-24T09:54:11.637Z,12.37
2018-12-24T09:56:40.643Z,13.32
2018-12-24T09:59:09.737Z,14.39
2018-12-24T10:01:38.705Z,14.84
2018-12-24T10:04:29.700Z,15.50
2018-12-24T10:07:06.790Z,15.85
2018-12-24T10:09:35.684Z,15.47
2018-12-24T10:12:04.569Z,15.93
2018-12-24T10:14:33.586Z,16.85
2018-12-24T10:17:02.415Z,17.02
2018-12-24T10:19:31.274Z,18.35
2018-12-24T10:22:00.203Z,19.24
2018-12-24T10:24:29.072Z,19.95
2018-12-24T10:26:58.168Z,20.57
2018-12-24T10:29:27.055Z,20.90
2018-12-24T10:31:55.966Z,21.22
2018-12-24T10:34:25.185Z,21.50
2018-12-24T10:36:54.003Z,21.76
2018-12-24T10:39:22.874Z,22.23
2018-12-24T10:41:51.768Z,23.12
2018-12-24T10:44:20.681Z,22.64
2018-12-24T10:46:49.587Z,23.10
2018-12-24T10:49:18.488Z,22.70
2018-12-24T10:51:47.456Z,23.27
2018-12-24T10:54:16.296Z,23.39
2018-12-24T10:56:45.162Z,23.52
2018-12-24T10:59:14.066Z,24.17
2018-12-24T11:01:44.715Z,24.27
2018-12-24T11:04:11.831Z,24.30
2018-12-24T11:06:40.740Z,23.89
2018-12-24T11:09:09.745Z,23.11
2018-12-24T11:11:39.188Z,23.67
2018-12-24T11:14:08.128Z,23.70
2018-12-24T11:16:37.008Z,24.23
2018-12-24T11:19:05.948Z,24.21
2018-12-24T11:21:34.832Z,23.30
2018-12-24T11:24:03.712Z,23.55
2018-12-24T11:26:32.635Z,23.64
2018-12-24T11:29:01.502Z,23.02
2018-12-24T11:31:30.406Z,23.53
2018-12-24T11:33:59.297Z,22.79
2018-12-24T11:36:28.199Z,22.39
2018-12-24T11:38:57.068Z,22.30
2018-12-24T11:41:25.929Z,20.90
2018-12-24T11:43:54.813Z,19.62
2018-12-24T11:46:26.553Z,18.47
2018-12-24T11:48:55.467Z,17.16
2018-12-24T11:51:24.369Z,16.22
2018-12-24T11:53:53.279Z,15.49
2018-12-24T11:56:22.338Z,15.08
2018-12-24T11:58:51.232Z,14.59
2018-12-24T12:01:20.105Z,14.22
2018-12-24T12:03:49.020Z,13.73
2018-12-24T12:06:19.915Z,13.42
2018-12-24T12:08:46.868Z,13.27
2018-12-24T12:11:15.760Z,13.07
2018-12-24T12:13:44.663Z,12.89
2018-12-24T12:16:13.553Z,12.67
2018-12-24T12:18:42.498Z,12.43
2018-12-24T12:21:11.370Z,12.32
2018-12-24T12:23:40.281Z,12.35
2018-12-24T12:26:09.215Z,12.26
2018-12-24T12:28:38.128Z,12.03
2018-12-24T12:31:07.198Z,12.02
2018-12-24T12:33:36.143Z,12.02
2018-12-24T12:36:05.135Z,11.98
2018-12-24T12:38:34.013Z,11.94
2018-12-24T12:41:02.988Z,11.97
2018-12-24T12:43:31.849Z,11.92
2018-12-24T12:46:00.736Z,11.88
2018-12-24T12:48:29.642Z,11.80
2018-12-24T12:50:58.538Z,11.71
2018-12-24T12:53:27.453Z,11.57
2018-12-24T12:55:56.342Z,11.55
2018-12-24T12:58:25.224Z,11.55
2018-12-24T13:00:54.108Z,11.56
2018-12-24T13:03:23.023Z,11.54
2018-12-24T13:05:51.893Z,11.41
2018-12-24T13:08:20.808Z,11.27
2018-12-24T13:10:49.687Z,11.24
2018-12-24T13:13:20.071Z,11.24
2018-12-24T13:15:48.952Z,11.18
2018-12-24T13:18:17.842Z,11.16
2018-12-24T13:20:46.727Z,11.18
2018-12-24T13:23:15.619Z,11.14
2018-12-24T13:25:44.531Z,11.05
2018-12-24T13:28:13.402Z,11.10
2018-12-24T13:30:42.294Z,11.07
2018-12-24T13:33:11.145Z,10.99
2018-12-24T13:35:40.049Z,10.92
2018-12-24T13:38:09.152Z,10.92
2018-12-24T13:40:38.097Z,10.85
2018-12-24T13:43:07.086Z,10.84
2018-12-24T13:45:35.959Z,10.88
2018-12-24T13:48:04.964Z,10.81
2018-12-24T13:50:33.854Z,10.78
2018-12-24T13:53:02.746Z,10.70
2018-12-24T13:55:31.644Z,10.55
2018-12-24T13:58:00.524Z,10.57
2018-12-24T14:00:29.424Z,10.50
2018-12-24T14:02:58.311Z,10.42
2018-12-24T14:05:27.222Z,10.37
2018-12-24T14:07:56.157Z,10.28
2018-12-24T14:10:25.125Z,10.31
2018-12-24T14:12:53.966Z,10.29
2018-12-24T14:15:22.858Z,10.26
2018-12-24T14:17:52.818Z,10.22
2018-12-24T14:20:21.702Z,10.22
2018-12-24T14:22:50.688Z,10.19
2018-12-24T14:25:19.503Z,10.20
2018-12-24T14:27:48.426Z,10.13
2018-12-24T14:30:17.293Z,10.11
2018-12-24T14:32:46.209Z,9.96
2018-12-24T14:35:15.075Z,9.81
2018-12-24T14:37:44.006Z,9.69
2018-12-24T14:40:12.881Z,9.69
2018-12-24T14:42:41.811Z,9.66
2018-12-24T14:45:10.711Z,9.59
2018-12-24T14:47:39.717Z,9.48
2018-12-24T14:50:08.930Z,9.34
2018-12-24T14:52:37.806Z,9.29
2018-12-24T14:55:06.918Z,9.22
2018-12-24T14:57:35.786Z,9.17
2018-12-24T15:00:05.910Z,9.09
2018-12-24T15:02:34.807Z,8.95
2018-12-24T15:05:03.859Z,8.82
2018-12-24T15:07:32.773Z,8.67
2018-12-24T15:10:01.698Z,8.93
2018-12-24T15:12:30.574Z,8.54
2018-12-24T15:14:59.490Z,8.41
2018-12-24T15:17:28.408Z,8.33
2018-12-24T15:19:57.329Z,8.17
2018-12-24T15:22:26.203Z,8.51
2018-12-24T15:24:55.094Z,8.10
2018-12-24T15:27:23.994Z,7.97
2018-12-24T15:29:52.896Z,7.74
2018-12-24T15:32:21.795Z,7.60
2018-12-24T15:34:50.701Z,7.61
2018-12-24T15:37:19.614Z,7.57
2018-12-24T15:39:48.518Z,7.54
2018-12-24T15:42:17.410Z,7.46
2018-12-24T15:44:46.318Z,7.41
2018-12-24T15:47:15.210Z,7.27
2018-12-24T15:49:44.094Z,7.55
2018-12-24T15:52:13.002Z,7.66
2018-12-24T15:54:41.872Z,7.70
2018-12-24T15:57:10.776Z,7.21
2018-12-24T15:59:39.650Z,7.00
2018-12-24T16:02:08.534Z,6.85
2018-12-24T16:04:37.396Z,6.76
2018-12-24T16:07:06.319Z,6.63
2018-12-24T16:09:35.277Z,6.54
2018-12-24T16:12:04.160Z,6.53
2018-12-24T16:14:33.071Z,6.83
2018-12-24T16:17:01.943Z,6.54
2018-12-24T16:19:30.850Z,6.42
2018-12-24T16:21:59.840Z,6.36
2018-12-24T16:24:28.743Z,6.27
2018-12-24T16:26:57.648Z,6.13
2018-12-24T16:29:26.584Z,6.16
2018-12-24T16:31:55.478Z,6.03
2018-12-24T16:34:24.435Z,5.90
2018-12-24T16:36:53.314Z,5.84
2018-12-24T16:39:22.219Z,5.64
2018-12-24T16:41:51.121Z,5.60
2018-12-24T16:44:20.020Z,5.62
2018-12-24T16:46:48.956Z,5.60
2018-12-24T16:49:17.839Z,5.52
2018-12-24T16:51:46.739Z,5.58
2018-12-24T16:54:15.618Z,5.56
2018-12-24T16:56:44.508Z,5.46
2018-12-24T16:59:13.393Z,5.43
2018-12-24T17:01:42.304Z,5.43
2018-12-24T17:04:11.166Z,5.36
2018-12-24T17:06:40.070Z,5.16
2018-12-24T17:09:08.955Z,5.02
2018-12-24T17:11:37.867Z,4.99
2018-12-24T17:14:06.798Z,4.97
2018-12-24T17:16:35.676Z,4.98
2018-12-24T17:19:04.616Z,5.41
2018-12-24T17:21:33.515Z,5.25
2018-12-24T17:24:02.396Z,5.16
2018-12-24T17:26:31.303Z,5.27
2018-12-24T17:29:00.182Z,5.40
2018-12-24T17:31:29.059Z,5.57
2018-12-24T17:33:57.965Z,5.59
2018-12-24T17:36:26.877Z,5.67
2018-12-24T17:38:55.772Z,5.53
2018-12-24T17:41:24.654Z,5.36
2018-12-24T17:43:53.552Z,5.33
2018-12-24T17:46:22.416Z,5.25
2018-12-24T17:48:51.300Z,5.18
2018-12-24T17:51:20.210Z,5.25
2018-12-24T17:53:49.131Z,5.28
2018-12-24T17:56:18.084Z,5.27
2018-12-24T17:58:46.992Z,5.27
2018-12-24T18:01:15.856Z,5.28
2018-12-24T18:03:44.766Z,5.28
2018-12-24T18:06:13.679Z,5.41
2018-12-24T18:08:42.550Z,5.50
2018-12-24T18:11:11.458Z,5.68
2018-12-24T18:13:40.384Z,5.59
2018-12-24T18:16:09.328Z,5.52
2018-12-24T18:18:38.217Z,5.43
2018-12-24T18:21:07.139Z,5.39
2018-12-24T18:23:36.027Z,5.37
2018-12-24T18:26:04.951Z,5.37
2018-12-24T18:28:33.841Z,5.36
2018-12-24T18:31:02.754Z,5.38
2018-12-24T18:33:31.672Z,5.89
2018-12-24T18:36:00.582Z,5.73
2018-12-24T18:38:29.500Z,5.63
2018-12-24T18:40:58.417Z,5.60
2018-12-24T18:43:27.304Z,6.10
2018-12-24T18:45:56.188Z,5.88
2018-12-24T18:48:25.152Z,5.73
2018-12-24T18:50:53.997Z,5.74
2018-12-24T18:53:22.894Z,5.72
2018-12-24T18:55:51.785Z,5.65
2018-12-24T18:58:20.682Z,5.69
2018-12-24T19:00:49.570Z,5.76
2018-12-24T19:03:18.487Z,5.82
2018-12-24T19:05:47.377Z,5.79
2018-12-24T19:08:16.296Z,5.74
2018-12-24T19:10:45.192Z,5.75
2018-12-24T19:13:14.084Z,5.69
2018-12-24T19:15:43.057Z,5.73
2018-12-24T19:18:11.911Z,5.79
2018-12-24T19:20:40.796Z,5.78
2018-12-24T19:23:09.694Z,5.82
2018-12-24T19:25:38.592Z,5.84
2018-12-24T19:28:07.497Z,5.91
2018-12-24T19:30:36.392Z,5.93
2018-12-24T19:33:05.280Z,5.98
2018-12-24T19:35:34.155Z,5.97
2018-12-24T19:38:03.039Z,6.02
2018-12-24T19:40:31.952Z,6.04
2018-12-24T19:43:00.825Z,6.11
2018-12-24T19:45:29.740Z,6.16
2018-12-24T19:47:58.629Z,6.21
2018-12-24T19:50:27.517Z,6.24
2018-12-24T19:52:56.422Z,6.28
2018-12-24T19:55:25.333Z,6.19
2018-12-24T19:57:54.235Z,6.58
2018-12-24T20:00:23.128Z,6.32
2018-12-24T20:02:52.056Z,6.29
2018-12-24T20:05:20.964Z,6.26
2018-12-24T20:07:49.848Z,6.32
2018-12-24T20:10:18.757Z,6.20
2018-12-24T20:12:47.643Z,6.15
2018-12-24T20:15:16.539Z,6.10
2018-12-24T20:17:45.433Z,6.15
2018-12-24T20:20:14.358Z,6.11
2018-12-24T20:22:43.266Z,6.04
2018-12-24T20:25:12.129Z,6.07
2018-12-24T20:27:41.033Z,6.03
2018-12-24T20:30:09.949Z,5.98
2018-12-24T20:32:38.904Z,6.02
2018-12-24T20:35:07.859Z,5.94
2018-12-24T20:37:36.749Z,5.93
2018-12-24T20:40:05.719Z,6.00
2018-12-24T20:42:34.626Z,6.01
2018-12-24T20:45:03.506Z,6.01
2018-12-24T20:47:32.418Z,6.03
2018-12-24T20:50:01.454Z,6.09
2018-12-24T20:52:30.186Z,6.04
2018-12-24T20:54:59.106Z,6.08
2018-12-24T20:57:28.024Z,6.14
2018-12-24T20:59:56.951Z,6.24
2018-12-24T21:02:25.829Z,6.20
2018-12-24T21:04:54.748Z,6.13
2018-12-24T21:07:23.633Z,6.22
2018-12-24T21:09:52.500Z,6.16
2018-12-24T21:12:21.410Z,6.21
2018-12-24T21:14:50.338Z,6.21
2018-12-24T21:17:19.250Z,6.23
2018-12-24T21:19:48.144Z,6.07
2018-12-24T21:22:17.022Z,6.06
2018-12-24T21:24:47.592Z,6.04
2018-12-24T21:27:16.387Z,6.11
2018-12-24T21:29:45.293Z,6.09
2018-12-24T21:32:15.603Z,6.05
2018-12-24T21:34:44.392Z,6.06
2018-12-24T21:37:13.258Z,6.14
2018-12-24T21:39:42.178Z,6.17
2018-12-24T21:42:11.055Z,6.21
2018-12-24T21:44:39.995Z,6.28
2018-12-24T21:47:08.883Z,6.38
2018-12-24T21:49:37.763Z,6.43
2018-12-24T21:52:06.692Z,6.44
2018-12-24T21:54:35.571Z,6.50
2018-12-24T21:57:07.426Z,6.48
2018-12-24T21:59:36.319Z,6.51
2018-12-24T22:02:05.252Z,6.52
2018-12-24T22:04:34.132Z,6.93
2018-12-24T22:07:03.003Z,6.69
2018-12-24T22:09:31.909Z,6.66
2018-12-24T22:12:00.800Z,7.10
2018-12-24T22:14:29.664Z,6.94
2018-12-24T22:16:58.555Z,6.82
2018-12-24T22:19:27.448Z,6.75
2018-12-24T22:21:56.314Z,6.63
2018-12-24T22:24:25.273Z,6.58
2018-12-24T22:26:54.138Z,6.58
2018-12-24T22:29:23.031Z,6.64
2018-12-24T22:31:51.907Z,6.65
2018-12-24T22:34:20.970Z,6.63
2018-12-24T22:36:49.857Z,6.56
2018-12-24T22:39:18.766Z,6.50
2018-12-24T22:41:47.658Z,6.43
2018-12-24T22:44:16.537Z,6.43
2018-12-24T22:46:45.442Z,6.42
2018-12-24T22:49:14.341Z,6.38
2018-12-24T22:51:43.238Z,6.38
2018-12-24T22:54:12.114Z,6.40
2018-12-24T22:56:42.238Z,6.83
2018-12-24T22:59:09.964Z,7.02
2018-12-24T23:01:38.847Z,6.73
2018-12-24T23:04:07.708Z,6.54
2018-12-24T23:06:36.634Z,6.39
2018-12-24T23:09:08.336Z,6.37
2018-12-24T23:11:37.282Z,6.32
2018-12-24T23:14:06.222Z,6.37
2018-12-24T23:16:35.115Z,6.40
2018-12-24T23:19:04.066Z,6.42
2018-12-24T23:21:32.987Z,6.47
2018-12-24T23:24:01.897Z,6.59
2018-12-24T23:26:30.796Z,6.62
2018-12-24T23:28:59.713Z,6.57
2018-12-24T23:31:28.601Z,6.53
2018-12-24T23:33:57.491Z,6.56
2018-12-24T23:36:26.357Z,6.51
2018-12-24T23:38:55.318Z,6.59
2018-12-24T23:41:24.227Z,6.62
2018-12-24T23:43:53.135Z,6.68
2018-12-24T23:46:22.108Z,7.17
2018-12-24T23:48:57.697Z,6.98
2018-12-24T23:51:19.831Z,6.92
2018-12-24T23:53:48.733Z,6.91
2018-12-24T23:56:17.629Z,6.90
2018-12-24T23:58:46.517Z,6.93
